Terminal Aerodrome Forecast
Issued by NWS

Home | Current Version | Previous Version | Text Only | Print | Product List | Glossary On
Versions: 1 2 3 4 5 6 7 8 9 10 11 12 13 14 15 16 17 18 19 20 21 22 23 24 25 26 27 28 29 30 31 32 33 34 35 36
000
FTUS44 KHGX 281401 AAA
TAFUTS
TAF AMD
KUTS 281401Z 2814/2912 VRB02KT P6SM FEW008 SCT012
      TEMPO 2814/2815 BKN012
     FM281500 20005KT P6SM FEW035
     FM282100 18007KT P6SM SCT060
     FM290200 17005KT P6SM SCT015=

USA.gov is the U.S. government's official web portal to all federal, state and local government web resources and services.